createdAt,value
2017-09-05T00:02:22.263Z,5.30
2017-09-05T00:04:49.856Z,4.90
2017-09-05T00:07:18.349Z,5.90
2017-09-05T00:09:46.864Z,5.80
2017-09-05T00:12:21.054Z,5.13
2017-09-05T00:14:52.658Z,5.30
2017-09-05T00:17:21.586Z,5.70
2017-09-05T00:19:49.361Z,5.77
2017-09-05T00:22:19.649Z,4.73
2017-09-05T00:24:47.304Z,5.20
2017-09-05T00:27:14.919Z,5.93
2017-09-05T00:29:42.534Z,5.40
2017-09-05T00:32:10.178Z,5.27
2017-09-05T00:34:37.822Z,5.50
2017-09-05T00:37:05.414Z,5.43
2017-09-05T00:39:33.073Z,4.83
2017-09-05T00:42:00.666Z,4.90
2017-09-05T00:44:28.649Z,5.30
2017-09-05T00:46:56.253Z,5.07
2017-09-05T00:49:23.864Z,5.00
2017-09-05T00:51:51.482Z,4.83
2017-09-05T00:54:19.082Z,5.23
2017-09-05T00:56:46.725Z,4.73
2017-09-05T00:59:14.344Z,5.00
2017-09-05T01:01:41.948Z,5.47
2017-09-05T01:04:09.537Z,5.20
2017-09-05T01:06:37.170Z,5.50
2017-09-05T01:09:04.754Z,5.03
2017-09-05T01:11:32.372Z,6.10
2017-09-05T01:14:00.033Z,5.53
2017-09-05T01:16:27.665Z,5.13
2017-09-05T01:18:55.254Z,4.97
2017-09-05T01:21:22.853Z,5.03
2017-09-05T01:23:50.444Z,5.10
2017-09-05T01:26:18.056Z,5.80
2017-09-05T01:28:45.660Z,5.73
2017-09-05T01:31:13.283Z,5.20
2017-09-05T01:33:40.869Z,5.30
2017-09-05T01:36:08.480Z,4.77
2017-09-05T01:38:36.068Z,5.07
2017-09-05T01:41:04.523Z,5.17
2017-09-05T01:43:32.124Z,5.50
2017-09-05T01:45:59.766Z,5.10
2017-09-05T01:48:27.343Z,5.17
2017-09-05T01:50:54.970Z,4.67
2017-09-05T01:53:22.706Z,4.83
2017-09-05T01:55:50.328Z,4.83
2017-09-05T01:58:17.940Z,4.83
2017-09-05T02:00:45.567Z,4.50
2017-09-05T02:03:13.131Z,4.80
2017-09-05T02:05:40.743Z,4.83
2017-09-05T02:08:08.357Z,5.40
2017-09-05T02:10:36.132Z,4.90
2017-09-05T02:13:03.722Z,5.63
2017-09-05T02:15:31.625Z,4.93
2017-09-05T02:17:59.213Z,4.40
2017-09-05T02:20:26.836Z,5.20
2017-09-05T02:22:54.464Z,4.60
2017-09-05T02:25:22.066Z,5.40
2017-09-05T02:27:49.688Z,5.20
2017-09-05T02:30:17.275Z,5.47
2017-09-05T02:32:44.941Z,4.60
2017-09-05T02:35:12.553Z,5.40
2017-09-05T02:37:40.178Z,4.53
2017-09-05T02:40:07.983Z,5.07
2017-09-05T02:42:35.721Z,5.23
2017-09-05T02:45:03.317Z,5.60
2017-09-05T02:47:30.987Z,5.67
2017-09-05T02:49:58.600Z,5.93
2017-09-05T02:52:26.266Z,5.83
2017-09-05T02:54:53.855Z,5.63
2017-09-05T02:57:21.593Z,4.87
2017-09-05T02:59:49.205Z,5.90
2017-09-05T03:02:16.945Z,5.40
2017-09-05T03:04:44.620Z,5.40
2017-09-05T03:07:12.268Z,5.47
2017-09-05T03:09:39.876Z,5.77
2017-09-05T03:12:07.530Z,5.90
2017-09-05T03:14:35.142Z,5.73
2017-09-05T03:17:02.786Z,5.50
2017-09-05T03:19:30.401Z,5.50
2017-09-05T03:21:58.032Z,5.30
2017-09-05T03:24:26.989Z,5.60
2017-09-05T03:26:54.684Z,5.57
2017-09-05T03:29:22.295Z,5.10
2017-09-05T03:31:49.934Z,6.00
2017-09-05T03:34:17.543Z,5.20
2017-09-05T03:36:45.193Z,5.50
2017-09-05T03:39:13.249Z,5.37
2017-09-05T03:41:40.866Z,5.37
2017-09-05T03:44:08.468Z,5.70
2017-09-05T03:46:36.198Z,5.20
2017-09-05T03:49:03.845Z,5.60
2017-09-05T03:51:31.456Z,5.80
2017-09-05T03:53:59.097Z,5.97
2017-09-05T03:56:26.703Z,5.80
2017-09-05T03:58:54.323Z,6.73
2017-09-05T04:01:21.897Z,5.73
2017-09-05T04:03:49.506Z,6.10
2017-09-05T04:06:17.103Z,6.07
2017-09-05T04:08:45.149Z,6.17
2017-09-05T04:11:12.775Z,5.50
2017-09-05T04:13:40.430Z,6.60
2017-09-05T04:16:08.050Z,6.07
2017-09-05T04:18:35.661Z,5.57
2017-09-05T04:21:03.301Z,6.00
2017-09-05T04:23:31.988Z,6.10
2017-09-05T04:25:59.581Z,6.00
2017-09-05T04:28:27.187Z,5.97
2017-09-05T04:30:54.800Z,5.37
2017-09-05T04:33:22.418Z,6.23
2017-09-05T04:35:50.021Z,5.10
2017-09-05T04:38:17.678Z,5.27
2017-09-05T04:40:45.391Z,22.03
2017-09-05T04:43:13.026Z,5.97
2017-09-05T04:45:40.632Z,5.80
2017-09-05T04:48:08.255Z,5.83
2017-09-05T04:50:35.853Z,5.37
2017-09-05T04:53:03.472Z,5.57
2017-09-05T04:55:31.070Z,5.30
2017-09-05T04:57:58.718Z,6.00
2017-09-05T05:00:26.390Z,5.50
2017-09-05T05:02:54.297Z,5.80
2017-09-05T05:05:22.053Z,5.60
2017-09-05T05:07:49.640Z,6.37
2017-09-05T05:10:17.238Z,6.70
2017-09-05T05:12:44.859Z,6.03
2017-09-05T05:15:12.483Z,5.93
2017-09-05T05:17:40.225Z,5.80
2017-09-05T05:20:07.857Z,5.60
2017-09-05T05:22:35.450Z,6.27
2017-09-05T05:25:03.289Z,6.20
2017-09-05T05:27:30.884Z,5.50
2017-09-05T05:29:58.521Z,6.20
2017-09-05T05:32:26.198Z,5.90
2017-09-05T05:34:53.831Z,6.80
2017-09-05T05:37:21.447Z,6.60
2017-09-05T05:39:49.069Z,6.93
2017-09-05T05:42:16.662Z,6.77
2017-09-05T05:44:44.290Z,7.10
2017-09-05T05:47:12.069Z,7.00
2017-09-05T05:49:39.705Z,7.50
2017-09-05T05:52:07.326Z,7.50
2017-09-05T05:54:34.929Z,6.97
2017-09-05T05:57:02.752Z,6.97
2017-09-05T05:59:30.422Z,7.00
2017-09-05T06:01:58.663Z,7.40
2017-09-05T06:04:26.253Z,7.33
2017-09-05T06:06:53.856Z,6.87
2017-09-05T06:09:21.467Z,6.47
2017-09-05T06:11:49.069Z,6.70
2017-09-05T06:14:16.680Z,7.20
2017-09-05T06:16:44.327Z,7.00
2017-09-05T06:19:11.947Z,8.17
2017-09-05T06:21:39.758Z,7.10
2017-09-05T06:24:08.643Z,8.57
2017-09-05T06:26:36.265Z,8.00
2017-09-05T06:29:03.896Z,8.53
2017-09-05T06:31:31.501Z,7.70
2017-09-05T06:33:59.148Z,7.90
2017-09-05T06:36:28.358Z,7.30
2017-09-05T06:38:55.998Z,7.53
2017-09-05T06:41:23.781Z,7.70
2017-09-05T06:43:51.411Z,7.23
2017-09-05T06:46:19.028Z,6.77
2017-09-05T06:48:46.654Z,7.37
2017-09-05T06:51:14.307Z,7.50
2017-09-05T06:53:41.905Z,8.10
2017-09-05T06:56:09.557Z,8.10
2017-09-05T06:58:37.144Z,7.10
2017-09-05T07:01:04.819Z,7.60
2017-09-05T07:03:32.433Z,7.47
2017-09-05T07:06:00.086Z,7.33
2017-09-05T07:08:27.666Z,8.00
2017-09-05T07:10:55.289Z,7.67
2017-09-05T07:13:22.892Z,6.20
2017-09-05T07:15:50.843Z,6.60
2017-09-05T07:18:18.449Z,6.13
2017-09-05T07:20:46.081Z,5.87
2017-09-05T07:23:13.669Z,6.10
2017-09-05T07:25:41.274Z,5.83
2017-09-05T07:28:08.919Z,5.30
2017-09-05T07:30:36.526Z,5.13
2017-09-05T07:33:04.152Z,5.33
2017-09-05T07:35:31.816Z,5.20
2017-09-05T07:37:59.935Z,4.60
2017-09-05T07:40:27.556Z,4.70
2017-09-05T07:42:55.218Z,4.83
2017-09-05T07:45:22.843Z,4.83
2017-09-05T07:47:50.451Z,5.00
2017-09-05T07:50:18.106Z,4.93
2017-09-05T07:52:45.725Z,4.80
2017-09-05T07:55:13.351Z,4.63
2017-09-05T07:57:40.975Z,4.20
2017-09-05T08:00:09.686Z,5.80
2017-09-05T08:02:37.401Z,4.73
2017-09-05T08:05:05.023Z,5.20
2017-09-05T08:07:32.645Z,4.30
2017-09-05T08:10:00.403Z,5.10
2017-09-05T08:12:28.004Z,5.60
2017-09-05T08:14:55.904Z,3.80
2017-09-05T08:17:23.578Z,4.20
2017-09-05T08:19:51.179Z,4.93
2017-09-05T08:22:18.776Z,4.23
2017-09-05T08:24:46.452Z,4.40
2017-09-05T08:27:14.084Z,5.13
2017-09-05T08:29:41.936Z,4.30
2017-09-05T08:32:09.571Z,5.40
2017-09-05T08:34:37.289Z,4.30
2017-09-05T08:37:04.894Z,4.93
2017-09-05T08:39:32.523Z,5.10
2017-09-05T08:42:00.375Z,4.57
2017-09-05T08:44:27.979Z,4.27
2017-09-05T08:46:55.623Z,4.80
2017-09-05T08:49:23.239Z,4.40
2017-09-05T08:51:51.179Z,4.40
2017-09-05T08:54:18.778Z,4.10
2017-09-05T08:56:46.474Z,4.70
2017-09-05T08:59:14.075Z,5.43
2017-09-05T09:01:41.745Z,4.77
2017-09-05T09:04:09.360Z,5.77
2017-09-05T09:06:37.060Z,4.80
2017-09-05T09:09:04.634Z,4.30
2017-09-05T09:11:32.259Z,4.30
2017-09-05T09:13:59.878Z,4.10
2017-09-05T09:16:27.504Z,3.90
2017-09-05T09:18:55.242Z,4.20
2017-09-05T09:21:22.884Z,4.07
2017-09-05T09:23:50.532Z,4.30
2017-09-05T09:26:18.158Z,3.97
2017-09-05T09:28:45.772Z,4.70
2017-09-05T09:31:13.404Z,3.83
2017-09-05T09:33:41.203Z,3.50
2017-09-05T09:36:08.829Z,4.00
2017-09-05T09:38:36.428Z,3.87
2017-09-05T09:41:04.040Z,3.30
2017-09-05T09:43:31.650Z,3.40
2017-09-05T09:45:59.666Z,3.77
2017-09-05T09:48:27.268Z,3.70
2017-09-05T09:50:54.873Z,3.13
2017-09-05T09:53:22.646Z,3.87
2017-09-05T09:55:50.268Z,3.20
2017-09-05T09:58:17.883Z,3.97
2017-09-05T10:00:45.525Z,3.97
2017-09-05T10:03:13.152Z,3.60
2017-09-05T10:05:40.741Z,3.83
2017-09-05T10:08:08.379Z,3.67
2017-09-05T10:10:35.992Z,3.83
2017-09-05T10:13:04.270Z,3.70
2017-09-05T10:15:31.857Z,3.57
2017-09-05T10:17:59.574Z,3.77
2017-09-05T10:20:27.181Z,3.37
2017-09-05T10:22:54.789Z,2.97
2017-09-05T10:25:22.374Z,3.30
2017-09-05T10:27:50.022Z,3.60
2017-09-05T10:30:17.638Z,3.30
2017-09-05T10:32:45.276Z,2.90
2017-09-05T10:35:12.855Z,3.50
2017-09-05T10:37:40.488Z,3.30
2017-09-05T10:40:08.084Z,3.63
2017-09-05T10:42:35.703Z,3.57
2017-09-05T10:45:03.393Z,3.00
2017-09-05T10:47:31.039Z,3.50
2017-09-05T10:49:58.646Z,3.27
2017-09-05T10:52:26.339Z,2.80
2017-09-05T10:54:54.136Z,3.60
2017-09-05T10:57:21.780Z,3.60
2017-09-05T10:59:49.512Z,3.93
2017-09-05T11:02:17.148Z,5.33
2017-09-05T11:04:44.737Z,4.10
2017-09-05T11:07:12.335Z,3.17
2017-09-05T11:09:39.941Z,3.27
2017-09-05T11:12:07.979Z,3.30
2017-09-05T11:14:35.657Z,3.73
2017-09-05T11:17:03.377Z,3.40
2017-09-05T11:19:31.016Z,3.60
2017-09-05T11:21:58.616Z,3.60
2017-09-05T11:24:26.326Z,3.60
2017-09-05T11:26:54.474Z,3.27
2017-09-05T11:29:22.101Z,3.37
2017-09-05T11:31:49.701Z,2.87
2017-09-05T11:34:17.323Z,3.40
2017-09-05T11:36:44.941Z,3.40
2017-09-05T11:39:12.544Z,3.53
2017-09-05T11:41:40.157Z,3.87
2017-09-05T11:44:08.003Z,4.17
2017-09-05T11:46:35.602Z,3.87
2017-09-05T11:49:03.349Z,4.63
2017-09-05T11:51:30.966Z,4.77
2017-09-05T11:54:00.634Z,4.70
2017-09-05T11:56:28.366Z,4.60
2017-09-05T11:58:56.086Z,4.07
2017-09-05T12:01:23.712Z,3.70
2017-09-05T12:03:52.376Z,4.10
2017-09-05T12:06:19.973Z,4.93
2017-09-05T12:08:47.605Z,3.80
2017-09-05T12:11:15.228Z,4.07
2017-09-05T12:13:42.841Z,4.40
2017-09-05T12:16:10.462Z,3.70
2017-09-05T12:18:38.123Z,4.00
2017-09-05T12:21:05.747Z,3.83
2017-09-05T12:23:34.736Z,3.30
2017-09-05T12:26:02.352Z,3.47
2017-09-05T12:28:29.986Z,3.33
2017-09-05T12:30:58.015Z,3.50
2017-09-05T12:33:25.671Z,3.10
2017-09-05T12:35:53.361Z,3.20
2017-09-05T12:38:21.022Z,3.00
2017-09-05T12:40:48.601Z,3.00
2017-09-05T12:43:16.602Z,3.10
2017-09-05T12:45:44.207Z,3.63
2017-09-05T12:48:11.843Z,2.90
2017-09-05T12:50:39.485Z,3.50
2017-09-05T12:53:07.111Z,2.97
2017-09-05T12:55:34.770Z,3.33
2017-09-05T12:58:02.445Z,3.30
2017-09-05T13:00:30.205Z,3.07
2017-09-05T13:02:57.863Z,3.13
2017-09-05T13:05:25.573Z,3.47
2017-09-05T13:07:53.192Z,3.20
2017-09-05T13:10:20.844Z,3.50
2017-09-05T13:12:49.662Z,2.40
2017-09-05T13:15:17.282Z,3.00
2017-09-05T13:17:44.888Z,2.57
2017-09-05T13:20:12.537Z,2.53
2017-09-05T13:22:40.151Z,2.67
2017-09-05T13:25:09.230Z,2.90
2017-09-05T13:27:36.842Z,2.53
2017-09-05T13:30:04.494Z,2.90
2017-09-05T13:32:32.458Z,2.50
2017-09-05T13:35:00.951Z,2.30
2017-09-05T13:37:28.595Z,2.40
2017-09-05T13:39:56.415Z,2.60
2017-09-05T13:42:24.103Z,2.40
2017-09-05T13:44:51.741Z,2.33
2017-09-05T13:47:19.663Z,2.37
2017-09-05T13:49:47.395Z,2.70
2017-09-05T13:52:14.992Z,2.20
2017-09-05T13:54:42.637Z,2.40
2017-09-05T13:57:10.254Z,2.47
2017-09-05T13:59:37.888Z,2.47
2017-09-05T14:02:05.634Z,2.60
2017-09-05T14:04:33.283Z,2.30
2017-09-05T14:07:00.905Z,2.60
2017-09-05T14:09:28.553Z,2.17
2017-09-05T14:11:56.133Z,2.53
2017-09-05T14:14:24.201Z,2.50
2017-09-05T14:16:51.813Z,2.60
2017-09-05T14:19:19.421Z,2.90
2017-09-05T14:21:47.127Z,2.63
2017-09-05T14:24:14.727Z,2.67
2017-09-05T14:26:42.347Z,2.40
2017-09-05T14:29:09.958Z,2.60
2017-09-05T14:31:37.616Z,2.90
2017-09-05T14:34:05.548Z,2.87
2017-09-05T14:36:33.608Z,2.80
2017-09-05T14:39:01.624Z,2.30
2017-09-05T14:41:29.286Z,2.73
2017-09-05T14:43:57.529Z,2.80
2017-09-05T14:46:25.185Z,2.90
2017-09-05T14:48:52.843Z,3.33
2017-09-05T14:51:20.432Z,3.70
2017-09-05T14:53:48.033Z,2.57
2017-09-05T14:56:15.670Z,2.80
2017-09-05T14:58:43.273Z,2.87
2017-09-05T15:01:10.906Z,2.47
2017-09-05T15:03:38.537Z,2.73
2017-09-05T15:06:06.155Z,2.83
2017-09-05T15:08:33.869Z,2.60
2017-09-05T15:11:02.893Z,2.87
2017-09-05T15:13:30.496Z,2.97
2017-09-05T15:15:58.318Z,2.67
2017-09-05T15:18:25.913Z,2.60
2017-09-05T15:20:53.570Z,2.80
2017-09-05T15:23:21.165Z,2.90
2017-09-05T15:25:48.875Z,2.37
2017-09-05T15:28:16.481Z,3.03
2017-09-05T15:30:44.130Z,2.70
2017-09-05T15:33:11.720Z,2.50
2017-09-05T15:35:39.338Z,2.83
2017-09-05T15:38:07.333Z,2.60
2017-09-05T15:40:34.987Z,2.77
2017-09-05T15:43:02.701Z,2.63
2017-09-05T15:45:30.740Z,2.90
2017-09-05T15:47:58.438Z,2.80
2017-09-05T15:50:26.129Z,2.53
2017-09-05T15:52:53.746Z,2.80
2017-09-05T15:55:21.413Z,2.93
2017-09-05T15:57:49.220Z,2.70
2017-09-05T16:00:16.821Z,3.40
2017-09-05T16:02:45.754Z,3.00
2017-09-05T16:05:13.424Z,2.73
2017-09-05T16:07:41.052Z,3.10
2017-09-05T16:10:08.656Z,3.37
2017-09-05T16:12:36.292Z,3.60
2017-09-05T16:15:03.924Z,2.90
2017-09-05T16:17:31.682Z,2.80
2017-09-05T16:19:59.470Z,3.03
2017-09-05T16:22:27.129Z,2.60
2017-09-05T16:24:54.753Z,2.80
2017-09-05T16:27:22.431Z,2.90
2017-09-05T16:29:50.044Z,2.90
2017-09-05T16:32:18.344Z,3.40
2017-09-05T16:34:46.073Z,2.60
2017-09-05T16:37:13.714Z,2.80
2017-09-05T16:39:41.727Z,2.87
2017-09-05T16:42:09.702Z,3.30
2017-09-05T16:44:37.633Z,3.03
2017-09-05T16:47:05.234Z,3.10
2017-09-05T16:49:32.924Z,3.20
2017-09-05T16:52:00.547Z,3.20
2017-09-05T16:54:28.988Z,2.63
2017-09-05T16:56:56.613Z,2.90
2017-09-05T16:59:24.278Z,3.00
2017-09-05T17:01:53.312Z,2.80
2017-09-05T17:04:21.208Z,3.23
2017-09-05T17:06:48.811Z,3.17
2017-09-05T17:09:16.426Z,3.10
2017-09-05T17:11:44.159Z,3.20
2017-09-05T17:14:11.755Z,3.20
2017-09-05T17:16:39.645Z,3.10
2017-09-05T17:19:07.677Z,3.30
2017-09-05T17:21:36.174Z,3.57
2017-09-05T17:24:03.939Z,3.30
2017-09-05T17:26:31.701Z,3.90
2017-09-05T17:28:59.405Z,3.30
2017-09-05T17:31:27.445Z,3.03
2017-09-05T17:33:55.113Z,3.37
2017-09-05T17:36:22.714Z,3.40
2017-09-05T17:38:50.668Z,4.80
2017-09-05T17:41:18.272Z,5.30
2017-09-05T17:43:45.894Z,4.30
2017-09-05T17:46:13.563Z,4.80
2017-09-05T17:48:41.184Z,4.97
2017-09-05T17:51:08.856Z,5.37
2017-09-05T17:53:36.533Z,4.80
2017-09-05T17:56:06.157Z,4.87
2017-09-05T17:58:33.846Z,4.60
2017-09-05T18:01:01.487Z,4.97
2017-09-05T18:03:29.128Z,5.30
2017-09-05T18:05:56.773Z,4.60
2017-09-05T18:08:24.410Z,4.70
2017-09-05T18:10:52.014Z,4.20
2017-09-05T18:13:19.823Z,6.80
2017-09-05T18:15:47.798Z,5.00
2017-09-05T18:18:15.415Z,5.23
2017-09-05T18:20:43.051Z,4.70
2017-09-05T18:23:10.764Z,3.40
2017-09-05T18:25:38.397Z,4.63
2017-09-05T18:28:06.065Z,4.20
2017-09-05T18:30:33.683Z,4.10
2017-09-05T18:33:01.315Z,4.20
2017-09-05T18:35:28.949Z,4.60
2017-09-05T18:37:57.128Z,5.23
2017-09-05T18:40:24.775Z,4.80
2017-09-05T18:42:52.429Z,4.73
2017-09-05T18:45:20.035Z,4.10
2017-09-05T18:47:47.653Z,4.10
2017-09-05T18:50:15.294Z,4.10
2017-09-05T18:52:42.918Z,4.00
2017-09-05T18:55:10.593Z,3.80
2017-09-05T18:57:38.268Z,4.13
2017-09-05T19:00:13.953Z,4.67
2017-09-05T19:02:45.705Z,4.50
2017-09-05T19:05:13.388Z,4.20
2017-09-05T19:07:42.941Z,4.20
2017-09-05T19:10:10.580Z,4.97
2017-09-05T19:12:38.205Z,4.67
2017-09-05T19:15:05.940Z,4.70
2017-09-05T19:17:33.577Z,4.90
2017-09-05T19:20:01.221Z,4.97
2017-09-05T19:22:28.837Z,4.67
2017-09-05T19:24:56.492Z,5.50
2017-09-05T19:27:24.097Z,5.57
2017-09-05T19:29:51.788Z,5.37
2017-09-05T19:32:19.562Z,5.57
2017-09-05T19:34:47.619Z,5.30
2017-09-05T19:37:15.270Z,5.43
2017-09-05T19:39:43.195Z,4.93
2017-09-05T19:42:12.989Z,4.90
2017-09-05T19:44:40.622Z,5.47
2017-09-05T19:47:08.929Z,4.53
2017-09-05T19:49:36.740Z,4.30
2017-09-05T19:52:04.367Z,5.57
2017-09-05T19:54:31.977Z,5.83
2017-09-05T19:56:59.719Z,5.13
2017-09-05T19:59:27.543Z,6.43
2017-09-05T20:01:55.342Z,21.37
2017-09-05T20:04:22.975Z,32.47
2017-09-05T20:06:51.958Z,17.07
2017-09-05T20:09:19.770Z,20.97
2017-09-05T20:11:47.456Z,13.73
2017-09-05T20:14:15.070Z,8.10
2017-09-05T20:16:42.868Z,6.10
2017-09-05T20:19:10.737Z,5.10
2017-09-05T20:21:38.386Z,5.30
2017-09-05T20:24:06.165Z,4.90
2017-09-05T20:26:33.981Z,4.60
2017-09-05T20:29:02.927Z,5.17
2017-09-05T20:31:30.575Z,5.50
2017-09-05T20:33:58.232Z,4.30
2017-09-05T20:36:25.894Z,4.20
2017-09-05T20:38:53.502Z,4.17
2017-09-05T20:41:21.961Z,3.73
2017-09-05T20:43:49.951Z,4.70
2017-09-05T20:46:17.595Z,4.30
2017-09-05T20:48:45.436Z,4.53
2017-09-05T20:51:13.835Z,4.50
2017-09-05T20:53:41.505Z,4.10
2017-09-05T20:56:09.319Z,4.10
2017-09-05T20:58:37.067Z,4.10
2017-09-05T21:01:04.650Z,3.80
2017-09-05T21:03:32.251Z,4.07
2017-09-05T21:05:59.956Z,4.57
2017-09-05T21:08:27.589Z,4.67
2017-09-05T21:10:55.229Z,4.80
2017-09-05T21:13:23.026Z,4.80
2017-09-05T21:15:51.067Z,4.60
2017-09-05T21:18:19.197Z,4.80
2017-09-05T21:20:46.988Z,4.67
2017-09-05T21:23:14.708Z,4.17
2017-09-05T21:25:42.327Z,4.50
2017-09-05T21:28:09.941Z,5.00
2017-09-05T21:30:37.879Z,4.80
2017-09-05T21:33:05.507Z,5.20
2017-09-05T21:35:33.111Z,5.30
2017-09-05T21:38:00.908Z,5.93
2017-09-05T21:40:28.865Z,5.27
2017-09-05T21:42:56.482Z,5.60
2017-09-05T21:45:24.097Z,5.87
2017-09-05T21:47:51.793Z,6.97
2017-09-05T21:50:19.396Z,6.73
2017-09-05T21:52:47.013Z,5.47
2017-09-05T21:55:14.587Z,6.10
2017-09-05T21:57:42.257Z,6.00
2017-09-05T22:00:09.856Z,4.83
2017-09-05T22:02:37.500Z,5.20
2017-09-05T22:05:05.290Z,5.33
2017-09-05T22:07:33.047Z,5.30
2017-09-05T22:10:00.658Z,5.20
2017-09-05T22:12:29.855Z,4.93
2017-09-05T22:15:03.264Z,5.57
2017-09-05T22:17:31.098Z,6.10
2017-09-05T22:20:04.313Z,5.20
2017-09-05T22:22:37.630Z,5.10
2017-09-05T22:25:10.900Z,5.47
2017-09-05T22:27:44.105Z,5.27
2017-09-05T22:30:11.724Z,4.80
2017-09-05T22:32:39.633Z,4.87
2017-09-05T22:35:07.238Z,5.60
2017-09-05T22:37:34.884Z,4.63
2017-09-05T22:40:02.493Z,5.40
2017-09-05T22:42:30.112Z,5.40
2017-09-05T22:44:57.815Z,4.90
2017-09-05T22:47:25.396Z,5.27
2017-09-05T22:49:53.063Z,4.37
2017-09-05T22:52:20.671Z,5.20
2017-09-05T22:54:49.399Z,4.70
2017-09-05T22:57:17.119Z,4.93
2017-09-05T22:59:44.740Z,6.20
2017-09-05T23:02:12.312Z,5.67
2017-09-05T23:04:39.967Z,6.10
2017-09-05T23:07:07.582Z,6.20
2017-09-05T23:09:35.199Z,6.30
2017-09-05T23:12:04.497Z,7.47
2017-09-05T23:14:32.108Z,7.70
2017-09-05T23:16:59.761Z,7.70
2017-09-05T23:19:27.374Z,6.80
2017-09-05T23:21:54.951Z,6.40
2017-09-05T23:24:22.596Z,5.43
2017-09-05T23:26:50.184Z,5.37
2017-09-05T23:29:17.799Z,4.80
2017-09-05T23:31:45.405Z,5.40
2017-09-05T23:34:13.043Z,5.20
2017-09-05T23:36:40.660Z,5.30
2017-09-05T23:39:08.300Z,5.43
2017-09-05T23:41:36.189Z,5.70
2017-09-05T23:44:03.995Z,5.90
2017-09-05T23:46:31.659Z,5.90
2017-09-05T23:48:59.309Z,6.23
2017-09-05T23:51:26.926Z,6.60
2017-09-05T23:53:54.519Z,5.90
2017-09-05T23:56:22.108Z,6.60
2017-09-05T23:58:49.736Z,5.97
